createdAt,value
2022-10-07T00:01:11.283Z,102214.97
2022-10-07T00:03:39.690Z,102204.97
2022-10-07T00:06:11.827Z,102200.53
2022-10-07T00:08:41.587Z,102207.31
2022-10-07T00:11:11.363Z,102209.38
2022-10-07T00:13:41.491Z,102206.81
2022-10-07T00:16:11.637Z,102204.78
2022-10-07T00:18:41.362Z,102201.22
2022-10-07T00:21:13.274Z,102202.41
2022-10-07T00:23:42.900Z,102206.47
2022-10-07T00:26:12.834Z,102204.41
2022-10-07T00:28:40.906Z,102199.66
2022-10-07T00:31:11.624Z,102191.69
2022-10-07T00:33:40.848Z,102186.28
2022-10-07T00:36:18.926Z,102185.13
2022-10-07T00:38:50.885Z,102182.56
2022-10-07T00:41:21.522Z,102186.13
2022-10-07T00:43:49.422Z,102175.09
2022-10-07T00:46:25.458Z,102167.13
2022-10-07T00:48:53.972Z,102165.59
2022-10-07T00:51:23.420Z,102160.34
2022-10-07T00:53:53.294Z,102162.38
2022-10-07T00:56:21.093Z,102159.97
2022-10-07T00:58:50.156Z,102157.63
2022-10-07T01:01:20.100Z,102152.72
2022-10-07T01:03:49.182Z,102156.94
2022-10-07T01:06:17.304Z,102142.16
2022-10-07T01:08:48.429Z,102147.09
2022-10-07T01:11:27.302Z,102138.63
2022-10-07T01:14:04.243Z,102133.38
2022-10-07T01:16:40.690Z,102139.81
2022-10-07T01:19:22.987Z,102135.22
2022-10-07T01:22:03.678Z,102130.63
2022-10-07T01:24:41.491Z,102114.22
2022-10-07T01:27:15.184Z,102128.09
2022-10-07T01:29:47.619Z,102126.22
2022-10-07T01:32:21.632Z,102119.28
2022-10-07T01:34:52.604Z,102118.97
2022-10-07T01:37:24.813Z,102110.47
2022-10-07T01:39:56.432Z,102112.84
2022-10-07T01:42:27.855Z,102107.41
2022-10-07T01:44:58.813Z,102098.94
2022-10-07T01:47:26.904Z,102107.09
2022-10-07T01:49:54.622Z,102096.56
2022-10-07T01:52:42.319Z,102095.53
2022-10-07T01:55:33.781Z,102088.41
2022-10-07T01:58:13.307Z,102084.69
2022-10-07T02:00:46.866Z,102080.97
2022-10-07T02:03:32.897Z,102084.53
2022-10-07T02:06:08.113Z,102077.41
2022-10-07T02:08:41.901Z,102073.34
2022-10-07T02:11:16.489Z,102073.34
2022-10-07T02:13:55.789Z,102062.00
2022-10-07T02:16:30.075Z,102068.59
2022-10-07T02:18:59.984Z,102064.00
2022-10-07T02:21:32.407Z,102067.09
2022-10-07T02:24:01.963Z,102059.97
2022-10-07T02:26:33.964Z,102063.34
2022-10-07T02:29:06.217Z,102058.94
2022-10-07T02:31:35.787Z,102062.66
2022-10-07T02:34:07.537Z,102054.88
2022-10-07T02:36:39.061Z,102056.06
2022-10-07T02:39:07.850Z,102059.63
2022-10-07T02:41:41.820Z,102054.72
2022-10-07T02:44:25.724Z,102049.78
2022-10-07T02:46:57.783Z,102040.81
2022-10-07T02:49:27.691Z,102046.41
2022-10-07T02:52:00.020Z,102043.69
2022-10-07T02:54:32.893Z,102038.63
2022-10-07T02:57:02.288Z,102034.72
2022-10-07T02:59:33.277Z,102042.19
2022-10-07T03:02:04.743Z,102037.94
2022-10-07T03:04:32.464Z,102034.91
2022-10-07T03:07:01.114Z,102037.44
2022-10-07T03:09:29.614Z,102026.06
2022-10-07T03:11:57.324Z,102034.91
2022-10-07T03:14:25.590Z,102031.00
2022-10-07T03:16:54.946Z,102032.03
2022-10-07T03:19:22.755Z,102031.16
2022-10-07T03:21:50.541Z,102037.44
2022-10-07T03:24:18.525Z,102029.47
2022-10-07T03:26:46.636Z,102030.81
2022-10-07T03:29:14.915Z,102025.41
2022-10-07T03:31:43.349Z,102023.69
2022-10-07T03:34:12.722Z,102016.56
2022-10-07T03:36:40.414Z,102016.94
2022-10-07T03:39:08.067Z,102009.09
2022-10-07T03:41:37.004Z,102009.44
2022-10-07T03:44:05.511Z,102018.91
2022-10-07T03:46:33.270Z,102015.53
2022-10-07T03:49:01.039Z,102020.78
2022-10-07T03:51:32.473Z,102013.88
2022-10-07T03:54:00.420Z,102014.53
2022-10-07T03:56:28.267Z,102005.03
2022-10-07T03:58:56.389Z,102000.09
2022-10-07T04:01:24.230Z,101996.22
2022-10-07T04:03:52.456Z,102001.63
2022-10-07T04:06:20.197Z,101992.31
2022-10-07T04:08:52.688Z,101991.97
2022-10-07T04:11:20.604Z,101987.91
2022-10-07T04:13:49.076Z,101992.66
2022-10-07T04:16:17.162Z,101995.84
2022-10-07T04:18:45.308Z,101982.47
2022-10-07T04:21:13.512Z,101981.34
2022-10-07T04:23:42.478Z,101985.06
2022-10-07T04:26:13.413Z,101984.69
2022-10-07T04:28:41.286Z,101982.53
2022-10-07T04:31:10.743Z,101971.50
2022-10-07T04:33:40.989Z,101969.81
2022-10-07T04:36:10.979Z,101974.44
2022-10-07T04:38:38.639Z,101970.44
2022-10-07T04:41:08.419Z,101975.53
2022-10-07T04:43:37.484Z,101967.94
2022-10-07T04:46:07.196Z,101973.81
2022-10-07T04:48:35.753Z,101968.75
2022-10-07T04:51:03.880Z,101964.41
2022-10-07T04:53:32.113Z,101972.81
2022-10-07T04:56:00.381Z,101959.88
2022-10-07T04:58:29.657Z,101958.53
2022-10-07T05:01:00.729Z,101961.47
2022-10-07T05:03:30.635Z,101967.41
2022-10-07T05:06:05.812Z,101956.38
2022-10-07T05:08:34.079Z,101958.22
2022-10-07T05:11:03.293Z,101958.75
2022-10-07T05:13:31.446Z,101955.53
2022-10-07T05:16:01.999Z,101957.75
2022-10-07T05:18:30.593Z,101956.06
2022-10-07T05:20:58.458Z,101955.69
2022-10-07T05:23:28.999Z,101951.59
2022-10-07T05:26:01.568Z,101948.72
2022-10-07T05:28:29.556Z,101949.22
2022-10-07T05:31:07.021Z,101954.63
2022-10-07T05:33:35.330Z,101953.91
2022-10-07T05:36:03.326Z,101958.50
2022-10-07T05:38:31.011Z,101950.97
2022-10-07T05:41:00.284Z,101942.88
2022-10-07T05:43:28.141Z,101940.34
2022-10-07T05:46:01.278Z,101933.78
2022-10-07T05:48:36.651Z,101933.78
2022-10-07T05:51:07.557Z,101935.59
2022-10-07T05:53:35.900Z,101930.91
2022-10-07T05:56:06.458Z,101933.31
2022-10-07T05:58:35.344Z,101927.31
2022-10-07T06:01:07.799Z,101933.25
2022-10-07T06:03:40.717Z,101928.28
2022-10-07T06:06:08.847Z,101924.22
2022-10-07T06:08:37.222Z,101925.84
2022-10-07T06:11:23.841Z,101926.91
2022-10-07T06:13:52.301Z,101925.56
2022-10-07T06:16:20.658Z,101920.59
2022-10-07T06:18:52.229Z,101917.06
2022-10-07T06:21:20.697Z,101918.16
2022-10-07T06:23:51.870Z,101910.34
2022-10-07T06:26:20.190Z,101910.88
2022-10-07T06:28:48.438Z,101913.59
2022-10-07T06:31:22.084Z,101912.44
2022-10-07T06:33:51.609Z,101912.13
2022-10-07T06:36:20.080Z,101909.72
2022-10-07T06:38:49.257Z,101907.56
2022-10-07T06:41:17.292Z,101906.56
2022-10-07T06:43:44.993Z,101917.38
2022-10-07T06:46:15.552Z,101918.75
2022-10-07T06:48:44.540Z,101919.28
2022-10-07T06:51:15.755Z,101918.75
2022-10-07T06:53:43.819Z,101921.28
2022-10-07T06:56:13.412Z,101921.00
2022-10-07T06:58:41.845Z,101922.03
2022-10-07T07:01:09.787Z,101922.03
2022-10-07T07:03:37.593Z,101919.69
2022-10-07T07:06:07.738Z,101918.69
2022-10-07T07:08:38.678Z,101914.97
2022-10-07T07:11:28.512Z,101913.97
2022-10-07T07:13:56.211Z,101907.69
2022-10-07T07:16:25.108Z,101909.75
2022-10-07T07:18:53.699Z,101911.94
2022-10-07T07:21:22.865Z,101911.78
2022-10-07T07:23:52.414Z,101907.50
2022-10-07T07:26:21.270Z,101900.41
2022-10-07T07:28:52.663Z,101900.38
2022-10-07T07:31:20.961Z,101897.69
2022-10-07T07:33:52.651Z,101888.19
2022-10-07T07:36:23.116Z,101892.75
2022-10-07T07:38:53.658Z,101888.66
2022-10-07T07:41:22.544Z,101891.22
2022-10-07T07:43:51.869Z,101889.84
2022-10-07T07:46:21.037Z,101897.59
2022-10-07T07:48:51.797Z,101896.41
2022-10-07T07:51:19.943Z,101900.28
2022-10-07T07:53:49.547Z,101905.34
2022-10-07T07:56:20.135Z,101889.56
2022-10-07T07:58:48.291Z,101895.28
2022-10-07T08:01:18.626Z,101891.00
2022-10-07T08:03:47.968Z,101881.25
2022-10-07T08:06:17.823Z,101888.66
2022-10-07T08:08:45.545Z,101884.66
2022-10-07T08:11:15.394Z,101883.59
2022-10-07T08:13:44.967Z,101876.22
2022-10-07T08:16:14.521Z,101871.63
2022-10-07T08:18:43.359Z,101877.44
2022-10-07T08:21:11.427Z,101869.81
2022-10-07T08:23:39.986Z,101873.97
2022-10-07T08:26:09.862Z,101870.94
2022-10-07T08:28:39.154Z,101860.78
2022-10-07T08:31:09.625Z,101860.44
2022-10-07T08:33:39.506Z,101850.88
2022-10-07T08:36:09.658Z,101857.63
2022-10-07T08:38:38.942Z,101850.22
2022-10-07T08:41:23.295Z,101850.88
2022-10-07T08:43:52.180Z,101847.63
2022-10-07T08:46:26.521Z,101842.28
2022-10-07T08:48:59.866Z,101845.47
2022-10-07T08:51:34.210Z,101840.22
2022-10-07T08:54:01.985Z,101835.53
2022-10-07T08:56:32.037Z,101834.59
2022-10-07T08:59:12.224Z,101829.88
2022-10-07T09:01:55.939Z,101823.41
2022-10-07T09:04:37.127Z,101829.00
2022-10-07T09:07:11.471Z,101823.91
2022-10-07T09:09:42.164Z,101817.28
2022-10-07T09:12:16.849Z,101817.97
2022-10-07T09:14:48.711Z,101822.03
2022-10-07T09:17:24.016Z,101811.41
2022-10-07T09:19:58.231Z,101803.31
2022-10-07T09:22:32.173Z,101801.88
2022-10-07T09:25:21.186Z,101793.31
2022-10-07T09:27:52.097Z,101801.16
2022-10-07T09:30:20.855Z,101790.78
2022-10-07T09:32:51.112Z,101795.72
2022-10-07T09:35:21.908Z,101789.84
2022-10-07T09:37:58.935Z,101790.50
2022-10-07T09:40:36.104Z,101773.34
2022-10-07T09:43:13.960Z,101783.84
2022-10-07T09:45:47.516Z,101777.06
2022-10-07T09:48:21.595Z,101777.13
2022-10-07T09:50:50.278Z,101765.06
2022-10-07T09:53:20.794Z,101762.50
2022-10-07T09:55:49.769Z,101771.91
2022-10-07T09:58:21.553Z,101765.63
2022-10-07T10:00:51.109Z,101765.22
2022-10-07T10:03:20.724Z,101761.75
2022-10-07T10:05:54.625Z,101770.06
2022-10-07T10:08:25.317Z,101766.03
2022-10-07T10:10:54.715Z,101761.50
2022-10-07T10:13:34.121Z,101754.03
2022-10-07T10:16:03.863Z,101750.44
2022-10-07T10:18:40.036Z,101750.06
2022-10-07T10:21:23.114Z,101743.91
2022-10-07T10:23:53.461Z,101738.50
2022-10-07T10:26:41.846Z,101734.94
2022-10-07T10:29:37.468Z,101733.47
2022-10-07T10:32:27.075Z,101727.69
2022-10-07T10:35:03.647Z,101717.00
2022-10-07T10:37:47.873Z,101713.44
2022-10-07T10:40:24.678Z,101711.41
2022-10-07T10:43:03.315Z,101703.88
2022-10-07T10:45:38.593Z,101699.31
2022-10-07T10:48:29.009Z,101698.72
2022-10-07T10:51:02.295Z,101690.78
2022-10-07T10:53:42.884Z,101691.88
2022-10-07T10:56:31.677Z,101683.09
2022-10-07T10:59:19.640Z,101685.84
2022-10-07T11:01:53.485Z,101675.81
2022-10-07T11:04:36.239Z,101668.47
2022-10-07T11:07:14.472Z,101672.88
2022-10-07T11:09:49.132Z,101665.53
2022-10-07T11:12:24.969Z,101666.19
2022-10-07T11:14:58.760Z,101656.31
2022-10-07T11:17:32.698Z,101650.88
2022-10-07T11:20:12.906Z,101645.00
2022-10-07T11:22:45.941Z,101636.63
2022-10-07T11:25:28.531Z,101630.75
2022-10-07T11:28:02.661Z,101628.03
2022-10-07T11:30:43.516Z,101624.50
2022-10-07T11:33:18.471Z,101629.09
2022-10-07T11:35:52.639Z,101612.31
2022-10-07T11:38:25.275Z,101612.72
2022-10-07T11:40:56.059Z,101612.72
2022-10-07T11:43:29.634Z,101607.69
2022-10-07T11:46:01.290Z,101599.50
2022-10-07T11:48:37.548Z,101600.59
2022-10-07T11:51:07.993Z,101602.28
2022-10-07T11:53:39.459Z,101584.59
2022-10-07T11:56:18.161Z,101582.28
2022-10-07T11:58:48.711Z,101575.31
2022-10-07T12:01:53.344Z,101572.28
2022-10-07T12:04:37.249Z,101566.16
2022-10-07T12:07:41.053Z,101567.94
2022-10-07T12:10:22.024Z,101542.19
2022-10-07T12:12:52.485Z,101540.81
2022-10-07T12:15:39.072Z,101531.47
2022-10-07T12:18:26.186Z,101526.63
2022-10-07T12:21:10.202Z,101520.25
2022-10-07T12:23:45.723Z,101520.38
2022-10-07T12:26:50.300Z,101514.13
2022-10-07T12:29:53.335Z,101502.19
2022-10-07T12:32:57.247Z,101500.53
2022-10-07T12:35:53.940Z,101501.06
2022-10-07T12:38:30.952Z,101498.56
2022-10-07T12:41:24.898Z,101493.72
2022-10-07T12:44:06.232Z,101488.16
2022-10-07T12:46:42.504Z,101483.53
2022-10-07T12:49:18.095Z,101470.22
2022-10-07T12:51:46.476Z,101466.78
2022-10-07T12:54:19.934Z,101462.41
2022-10-07T12:56:48.983Z,101467.75
2022-10-07T12:59:50.149Z,101463.91
2022-10-07T13:03:03.831Z,101454.28
2022-10-07T13:06:21.108Z,101448.78
2022-10-07T13:09:12.041Z,101445.22
2022-10-07T13:12:06.495Z,101441.47
2022-10-07T13:14:40.077Z,101431.13
2022-10-07T13:17:24.010Z,101432.31
2022-10-07T13:20:01.051Z,101425.03
2022-10-07T13:22:30.668Z,101428.28
2022-10-07T13:24:59.985Z,101423.84
2022-10-07T13:27:31.323Z,101411.94
2022-10-07T13:30:01.289Z,101421.34
2022-10-07T13:32:30.971Z,101413.44
2022-10-07T13:35:00.124Z,101410.56
2022-10-07T13:37:30.515Z,101406.31
2022-10-07T13:40:18.918Z,101400.69
2022-10-07T13:42:54.423Z,101392.47
2022-10-07T13:45:22.579Z,101401.75
2022-10-07T13:47:51.034Z,101399.88
2022-10-07T13:50:22.022Z,101395.44
2022-10-07T13:52:53.229Z,101385.78
2022-10-07T13:55:28.120Z,101390.31
2022-10-07T13:58:00.589Z,101378.44
2022-10-07T14:00:29.377Z,101382.34
2022-10-07T14:02:57.112Z,101377.81
2022-10-07T14:05:29.170Z,101377.06
2022-10-07T14:07:59.774Z,101372.22
2022-10-07T14:10:29.213Z,101360.94
2022-10-07T14:13:03.073Z,101365.06
2022-10-07T14:15:32.988Z,101357.59
2022-10-07T14:18:08.095Z,101354.88
2022-10-07T14:20:38.570Z,101355.97
2022-10-07T14:23:09.030Z,101346.38
2022-10-07T14:25:50.870Z,101347.19
2022-10-07T14:28:28.649Z,101345.13
2022-10-07T14:31:30.107Z,101335.72
2022-10-07T14:34:18.795Z,101335.13
2022-10-07T14:37:01.262Z,101328.44
2022-10-07T14:39:35.127Z,101314.94
2022-10-07T14:42:05.013Z,101319.22
2022-10-07T14:44:38.043Z,101320.31
2022-10-07T14:47:10.001Z,101323.03
2022-10-07T14:49:37.689Z,101307.28
2022-10-07T14:52:06.202Z,101305.84
2022-10-07T14:54:34.697Z,101306.06
2022-10-07T14:57:05.546Z,101300.59
2022-10-07T14:59:37.789Z,101304.22
2022-10-07T15:02:06.171Z,101306.38
2022-10-07T15:04:34.199Z,101294.22
2022-10-07T15:07:02.365Z,101300.13
2022-10-07T15:09:30.071Z,101298.91
2022-10-07T15:11:57.852Z,101294.72
2022-10-07T15:14:25.567Z,101290.09
2022-10-07T15:16:54.795Z,101294.13
2022-10-07T15:19:22.825Z,101285.06
2022-10-07T15:21:50.562Z,101290.63
2022-10-07T15:24:19.279Z,101286.44
2022-10-07T15:26:47.735Z,101279.06
2022-10-07T15:29:16.149Z,101277.63
2022-10-07T15:31:44.175Z,101273.22
2022-10-07T15:34:13.916Z,101268.81
2022-10-07T15:36:43.945Z,101267.28
2022-10-07T15:39:11.877Z,101268.31
2022-10-07T15:41:41.510Z,101261.16
2022-10-07T15:44:16.011Z,101264.94
2022-10-07T15:46:44.148Z,101264.16
2022-10-07T15:49:13.369Z,101270.53
2022-10-07T15:51:41.468Z,101261.91
2022-10-07T15:54:10.894Z,101263.84
2022-10-07T15:56:38.857Z,101264.50
2022-10-07T15:59:06.678Z,101257.34
2022-10-07T16:01:34.453Z,101262.22
2022-10-07T16:06:52.206Z,101243.53
2022-10-07T16:09:20.468Z,101244.19
2022-10-07T16:11:49.000Z,101235.00
2022-10-07T16:14:16.851Z,101237.13
2022-10-07T16:16:44.651Z,101242.00
2022-10-07T16:19:12.608Z,101236.72
2022-10-07T16:21:42.747Z,101242.19
2022-10-07T16:24:15.838Z,101229.78
2022-10-07T16:26:44.414Z,101235.78
2022-10-07T16:29:32.771Z,101234.09
2022-10-07T16:32:00.661Z,101228.31
2022-10-07T16:34:29.331Z,101234.69
2022-10-07T16:36:58.063Z,101230.09
2022-10-07T16:39:27.145Z,101226.78
2022-10-07T16:41:56.451Z,101222.34
2022-10-07T16:44:24.761Z,101219.47
2022-10-07T16:46:56.505Z,101217.78
2022-10-07T16:49:26.109Z,101215.50
2022-10-07T16:51:54.302Z,101217.25
2022-10-07T16:54:22.200Z,101212.81
2022-10-07T16:56:53.215Z,101209.25
2022-10-07T16:59:23.678Z,101216.03
2022-10-07T17:01:54.472Z,101218.34
2022-10-07T17:04:22.447Z,101212.47
2022-10-07T17:06:50.524Z,101216.03
2022-10-07T17:09:18.665Z,101218.56
2022-10-07T17:11:47.071Z,101212.25
2022-10-07T17:14:18.362Z,101213.75
2022-10-07T17:16:47.950Z,101221.13
2022-10-07T17:19:17.912Z,101222.78
2022-10-07T17:21:47.481Z,101213.75
2022-10-07T17:24:16.036Z,101215.66
2022-10-07T17:26:44.221Z,101216.94
2022-10-07T17:29:13.887Z,101216.94
2022-10-07T17:31:44.244Z,101218.00
2022-10-07T17:34:12.719Z,101209.41
2022-10-07T17:36:40.878Z,101212.81
2022-10-07T17:39:08.609Z,101208.69
2022-10-07T17:41:38.240Z,101214.97
2022-10-07T17:44:09.221Z,101208.28
2022-10-07T17:46:38.939Z,101216.69
2022-10-07T17:49:11.458Z,101207.88
2022-10-07T17:51:42.361Z,101206.22
2022-10-07T17:54:12.314Z,101204.34
2022-10-07T17:56:40.168Z,101206.66
2022-10-07T17:59:08.046Z,101207.75
2022-10-07T18:01:36.384Z,101204.00
2022-10-07T18:04:06.279Z,101205.72
2022-10-07T18:06:36.920Z,101222.50
2022-10-07T18:09:06.661Z,101210.56
2022-10-07T18:11:52.453Z,101216.69
2022-10-07T18:14:38.215Z,101209.53
2022-10-07T18:17:06.770Z,101209.06
2022-10-07T18:19:34.851Z,101210.47
2022-10-07T18:22:03.927Z,101212.78
2022-10-07T18:24:31.739Z,101202.03
2022-10-07T18:27:01.817Z,101198.69
2022-10-07T18:29:31.423Z,101209.69
2022-10-07T18:31:59.845Z,101202.19
2022-10-07T18:34:27.552Z,101202.66
2022-10-07T18:36:56.896Z,101196.00
2022-10-07T18:39:27.445Z,101199.19
2022-10-07T18:41:55.433Z,101200.47
2022-10-07T18:44:23.349Z,101199.44
2022-10-07T18:46:51.172Z,101196.94
2022-10-07T18:49:18.866Z,101198.19
2022-10-07T18:51:47.212Z,101191.06
2022-10-07T18:54:15.645Z,101182.25
2022-10-07T18:56:53.549Z,101181.66
2022-10-07T18:59:31.217Z,101185.41
2022-10-07T19:02:36.067Z,101178.94
2022-10-07T19:05:32.925Z,101185.03
2022-10-07T19:08:06.712Z,101175.38
2022-10-07T19:10:45.059Z,101163.00
2022-10-07T19:13:40.100Z,101165.13
2022-10-07T19:16:30.848Z,101173.31
2022-10-07T19:19:02.788Z,101167.69
2022-10-07T19:21:41.089Z,101168.50
2022-10-07T19:24:15.357Z,101171.66
2022-10-07T19:27:05.305Z,101162.47
2022-10-07T19:30:04.790Z,101163.69
2022-10-07T19:33:32.991Z,101167.06
2022-10-07T19:36:26.083Z,101159.94
2022-10-07T19:39:04.663Z,101154.28
2022-10-07T19:41:41.326Z,101159.31
2022-10-07T19:44:20.366Z,101151.97
2022-10-07T19:47:04.482Z,101158.91
2022-10-07T19:49:40.122Z,101148.03
2022-10-07T19:52:24.067Z,101154.72
2022-10-07T19:54:57.968Z,101149.28
2022-10-07T19:57:32.078Z,101153.03
2022-10-07T20:00:07.463Z,101145.28
2022-10-07T20:02:44.395Z,101146.34
2022-10-07T20:05:18.596Z,101150.53
2022-10-07T20:07:49.728Z,101147.81
2022-10-07T20:10:25.255Z,101149.66
2022-10-07T20:12:57.846Z,101147.81
2022-10-07T20:15:29.687Z,101145.47
2022-10-07T20:18:08.723Z,101144.00
2022-10-07T20:20:42.309Z,101152.81
2022-10-07T20:23:19.633Z,101154.28
2022-10-07T20:25:58.023Z,101154.28
2022-10-07T20:28:38.463Z,101149.06
2022-10-07T20:31:28.846Z,101145.47
2022-10-07T20:34:19.885Z,101143.19
2022-10-07T20:37:12.514Z,101137.13
2022-10-07T20:40:04.694Z,101131.88
2022-10-07T20:42:43.332Z,101130.00
2022-10-07T20:45:25.356Z,101122.47
2022-10-07T20:48:02.001Z,101123.31
2022-10-07T20:50:42.286Z,101119.34
2022-10-07T20:53:23.075Z,101119.94
2022-10-07T20:56:10.292Z,101118.25
2022-10-07T20:58:50.194Z,101121.38
2022-10-07T21:01:30.016Z,101125.75
2022-10-07T21:04:10.223Z,101121.13
2022-10-07T21:06:56.257Z,101120.69
2022-10-07T21:09:39.056Z,101119.06
2022-10-07T21:12:19.428Z,101111.31
2022-10-07T21:14:58.763Z,101114.06
2022-10-07T21:17:37.657Z,101110.72
2022-10-07T21:20:21.280Z,101103.38
2022-10-07T21:23:03.663Z,101100.66
2022-10-07T21:25:44.186Z,101101.09
2022-10-07T21:28:25.390Z,101094.78
2022-10-07T21:31:06.332Z,101096.69
2022-10-07T21:33:52.296Z,101090.56
2022-10-07T21:36:32.280Z,101092.03
2022-10-07T21:39:25.684Z,101088.47
2022-10-07T21:41:54.649Z,101079.28
2022-10-07T21:44:22.806Z,101082.19
2022-10-07T21:46:50.720Z,101073.41
2022-10-07T21:49:18.455Z,101073.81
2022-10-07T21:51:46.189Z,101075.91
2022-10-07T21:54:15.527Z,101064.00
2022-10-07T21:56:45.994Z,101062.53
2022-10-07T21:59:14.114Z,101059.44
2022-10-07T22:01:42.482Z,101053.34
2022-10-07T22:04:16.176Z,101044.56
2022-10-07T22:07:01.746Z,101042.03
2022-10-07T22:09:31.279Z,101049.75
2022-10-07T22:11:59.009Z,101050.78
2022-10-07T22:14:27.479Z,101046.81
2022-10-07T22:16:55.196Z,101038.41
2022-10-07T22:19:23.317Z,101037.81
2022-10-07T22:21:51.295Z,101039.66
2022-10-07T22:24:19.033Z,101027.31
2022-10-07T22:26:50.941Z,101027.75
2022-10-07T22:29:19.934Z,101032.75
2022-10-07T22:31:47.962Z,101028.38
2022-10-07T22:34:29.594Z,101028.53
2022-10-07T22:36:58.725Z,101013.69
2022-10-07T22:39:26.632Z,101021.41
2022-10-07T22:41:55.642Z,101007.63
2022-10-07T22:44:23.357Z,101013.25
2022-10-07T22:46:51.124Z,101009.47
2022-10-07T22:49:18.748Z,101007.75
2022-10-07T22:51:46.497Z,101009.00
2022-10-07T22:54:14.985Z,100999.63
2022-10-07T22:56:42.687Z,101003.00
2022-10-07T22:59:11.742Z,101004.25
2022-10-07T23:01:39.505Z,100998.41
2022-10-07T23:04:07.403Z,101003.03
2022-10-07T23:06:36.737Z,101003.84
2022-10-07T23:09:05.274Z,100997.38
2022-10-07T23:11:33.116Z,100995.31
2022-10-07T23:14:00.834Z,100999.06
2022-10-07T23:16:33.843Z,101000.09
2022-10-07T23:19:02.005Z,100993.84
2022-10-07T23:21:33.500Z,100994.47
2022-10-07T23:24:06.953Z,100995.72
2022-10-07T23:26:36.110Z,100995.31
2022-10-07T23:29:04.366Z,100994.25
2022-10-07T23:31:33.525Z,101000.31
2022-10-07T23:34:02.834Z,100998.63
2022-10-07T23:36:30.916Z,100998.84
2022-10-07T23:39:00.374Z,100991.72
2022-10-07T23:41:30.093Z,100987.16
2022-10-07T23:43:59.893Z,100985.69
2022-10-07T23:46:28.720Z,100986.06
2022-10-07T23:48:57.748Z,100985.44
2022-10-07T23:51:28.149Z,100984.41
2022-10-07T23:53:56.973Z,100976.44
2022-10-07T23:56:24.645Z,100986.25
2022-10-07T23:58:52.442Z,100979.78
